Time;durP1;ratioP1;P1;durP2;ratioP2;P2;SDS_P1;SDS_P2;PMS_P1;PMS_P2;Temp;Humidity;BMP_temperature;BMP_pressure;BME280_temperature;BME280_humidity;BME280_pressure;Samples;Min_cycle;Max_cycle;Signal;HPM_P1;HPM_P2
2022/10/03 00:00:24;;;;;;;20.83;2.92;;;9.70;99.90;;;;;;5089347;28;20517;-71
2022/10/03 00:03:08;;;;;;;19.00;3.07;;;9.70;99.90;;;;;;5084078;28;20040;-71
2022/10/03 00:05:42;;;;;;;23.33;2.83;;;9.70;99.90;;;;;;5070457;28;20416;-70
2022/10/03 00:08:29;;;;;;;22.70;3.13;;;9.80;99.90;;;;;;5052242;28;20068;-71
2022/10/03 00:10:58;;;;;;;20.07;2.83;;;9.80;99.90;;;;;;5068777;28;20053;-71
2022/10/03 00:14:04;;;;;;;15.85;2.75;;;9.80;99.90;;;;;;5077255;28;20032;-71
2022/10/03 00:16:39;;;;;;;21.67;3.00;;;9.80;99.90;;;;;;5012507;28;20545;-71
2022/10/03 00:19:20;;;;;;;16.20;2.63;;;9.90;99.90;;;;;;5063454;28;20056;-71
2022/10/03 00:22:20;;;;;;;11.57;2.55;;;9.90;99.90;;;;;;5068903;28;20419;-71
2022/10/03 00:25:16;;;;;;;13.93;3.10;;;9.90;99.90;;;;;;5067346;28;20059;-71
2022/10/03 00:27:45;;;;;;;21.97;3.10;;;10.00;99.90;;;;;;5041396;28;20541;-71
2022/10/03 00:30:22;;;;;;;17.83;3.03;;;9.90;99.90;;;;;;5051793;28;20056;-71
2022/10/03 00:32:48;;;;;;;19.20;2.67;;;10.00;99.90;;;;;;5067892;28;20044;-71
2022/10/03 00:35:30;;;;;;;18.40;2.63;;;10.00;99.90;;;;;;5069850;28;20055;-71
2022/10/03 00:38:37;;;;;;;15.13;2.60;;;10.00;99.90;;;;;;5066322;28;20059;-71
2022/10/03 00:41:12;;;;;;;15.80;2.55;;;10.10;99.90;;;;;;5090044;28;20051;-71
2022/10/03 00:43:59;;;;;;;16.73;2.53;;;10.10;99.90;;;;;;5078753;28;20517;-71
2022/10/03 00:46:46;;;;;;;14.53;2.73;;;10.10;99.90;;;;;;5063915;28;20768;-72
2022/10/03 00:49:37;;;;;;;17.07;2.90;;;10.10;99.90;;;;;;5068941;28;20488;-71
2022/10/03 00:52:22;;;;;;;15.27;2.40;;;10.20;99.90;;;;;;5067419;28;20136;-71
2022/10/03 00:55:22;;;;;;;21.03;2.87;;;10.20;99.90;;;;;;5073720;28;20044;-71
2022/10/03 00:58:21;;;;;;;25.47;2.97;;;10.20;99.90;;;;;;5055884;28;20052;-71
2022/10/03 01:00:51;;;;;;;17.07;2.83;;;10.10;99.90;;;;;;5058442;28;20052;-71
2022/10/03 01:03:33;;;;;;;13.43;2.28;;;10.20;99.90;;;;;;5070094;28;20124;-71
2022/10/03 01:06:08;;;;;;;15.23;2.43;;;10.20;99.90;;;;;;5072315;28;20109;-71
2022/10/03 01:08:53;;;;;;;15.07;2.53;;;10.10;99.90;;;;;;5061946;28;20059;-71
2022/10/03 01:11:29;;;;;;;16.58;3.03;;;10.20;99.90;;;;;;5073002;28;20382;-71
2022/10/03 01:14:22;;;;;;;19.40;2.58;;;10.10;99.90;;;;;;5076265;28;20059;-71
2022/10/03 01:17:25;;;;;;;14.33;2.50;;;10.10;99.90;;;;;;5056596;28;20114;-71
2022/10/03 01:20:13;;;;;;;15.27;2.57;;;10.00;99.90;;;;;;5071463;28;20098;-71
2022/10/03 01:22:56;;;;;;;15.27;2.70;;;9.90;99.90;;;;;;5071520;28;20491;-71
2022/10/03 01:25:25;;;;;;;10.27;2.53;;;10.00;99.90;;;;;;5073052;28;20048;-71
2022/10/03 01:31:09;;;;;;;19.47;2.80;;;9.90;99.90;;;;;;5071629;28;20080;-71
2022/10/03 01:34:12;;;;;;;15.90;2.30;;;9.80;99.90;;;;;;5071230;28;20040;-71
2022/10/03 01:36:53;;;;;;;15.40;2.90;;;9.90;99.90;;;;;;5058652;28;20404;-71
2022/10/03 01:39:33;;;;;;;16.60;2.53;;;10.00;99.90;;;;;;5073222;28;20377;-71
2022/10/03 01:42:16;;;;;;;20.80;3.00;;;10.00;99.90;;;;;;5059996;28;20048;-71
2022/10/03 01:45:06;;;;;;;19.00;2.75;;;10.00;99.90;;;;;;5086925;28;20273;-71
2022/10/03 01:47:51;;;;;;;15.60;2.80;;;10.00;99.90;;;;;;5046551;28;20429;-71
2022/10/03 01:50:43;;;;;;;12.93;2.53;;;10.10;99.90;;;;;;5071283;28;20060;-71
2022/10/03 01:53:33;;;;;;;20.27;2.90;;;10.10;99.90;;;;;;5072269;28;20156;-71
2022/10/03 01:56:20;;;;;;;16.87;2.47;;;10.10;99.90;;;;;;5072896;28;20121;-71
2022/10/03 01:58:55;;;;;;;15.60;3.00;;;10.20;99.90;;;;;;5066111;28;20052;-71
2022/10/03 02:01:46;;;;;;;16.77;2.53;;;10.20;99.90;;;;;;5071012;28;20106;-71
2022/10/03 02:04:20;;;;;;;18.50;2.88;;;10.20;99.90;;;;;;5053062;28;20067;-71
2022/10/03 02:06:52;;;;;;;17.87;2.90;;;10.30;99.90;;;;;;5055692;28;20063;-70
2022/10/03 02:09:49;;;;;;;14.80;2.37;;;10.30;99.90;;;;;;5069300;28;20056;-71
2022/10/03 02:12:22;;;;;;;16.43;2.60;;;10.20;99.90;;;;;;5069930;28;20499;-71
2022/10/03 02:14:48;;;;;;;18.27;2.55;;;10.30;99.90;;;;;;5075174;28;20044;-71
2022/10/03 02:17:46;;;;;;;18.00;2.70;;;10.20;99.90;;;;;;5057339;28;20142;-71
2022/10/03 02:20:39;;;;;;;16.45;2.35;;;10.20;99.90;;;;;;5081841;28;20064;-71
2022/10/03 02:23:24;;;;;;;16.95;2.83;;;10.20;99.90;;;;;;5092103;28;20048;-71
2022/10/03 02:26:08;;;;;;;18.98;2.75;;;10.20;99.90;;;;;;5065122;28;20048;-71
2022/10/03 02:28:43;;;;;;;15.63;2.43;;;10.30;99.90;;;;;;5059963;28;20124;-71
2022/10/03 02:31:35;;;;;;;16.55;2.75;;;10.30;99.90;;;;;;5070524;28;20053;-71
2022/10/03 02:34:22;;;;;;;;;;;10.30;99.90;;;;;;5053617;28;20629;-70
2022/10/03 02:37:06;;;;;;;17.02;2.00;;;10.30;99.90;;;;;;5059205;28;19916;-71
2022/10/03 02:39:38;;;;;;;15.48;2.88;;;10.40;99.90;;;;;;5092036;28;20189;-71
2022/10/03 02:42:55;;;;;;;19.17;2.75;;;10.40;99.90;;;;;;5086560;28;20049;-71
2022/10/03 02:45:23;;;;;;;12.80;2.38;;;10.40;99.90;;;;;;4961499;28;20121;-71
2022/10/03 02:48:11;;;;;;;15.52;2.50;;;10.50;99.90;;;;;;4973581;28;20459;-71
2022/10/03 02:50:52;;;;;;;15.80;2.47;;;10.40;99.90;;;;;;5042963;28;20056;-71
2022/10/03 02:53:48;;;;;;;20.63;3.08;;;10.50;99.90;;;;;;5075018;28;20044;-71
2022/10/03 02:56:30;;;;;;;13.82;2.38;;;10.70;99.90;;;;;;5081005;28;20501;-71
2022/10/03 02:59:18;;;;;;;15.77;2.60;;;10.60;99.90;;;;;;5077266;28;20052;-71
2022/10/03 03:01:57;;;;;;;16.08;2.17;;;10.60;99.90;;;;;;5057695;28;20380;-71
2022/10/03 03:04:55;;;;;;;17.52;2.42;;;10.60;99.90;;;;;;5069895;28;20040;-71
2022/10/03 03:07:45;;;;;;;16.80;2.65;;;10.60;99.90;;;;;;5073756;28;20048;-71
2022/10/03 03:10:42;;;;;;;17.98;2.65;;;10.60;99.90;;;;;;5069803;28;20040;-71
2022/10/03 03:13:36;;;;;;;11.40;2.22;;;10.60;99.90;;;;;;5071951;28;20123;-71
2022/10/03 03:16:11;;;;;;;11.45;1.77;;;10.60;99.90;;;;;;5078812;28;20060;-71
2022/10/03 03:19:06;;;;;;;10.57;2.00;;;10.60;99.90;;;;;;5049128;28;20136;-71
2022/10/03 03:21:51;;;;;;;17.42;2.47;;;10.70;99.90;;;;;;5072289;28;20101;-71
2022/10/03 03:24:35;;;;;;;17.25;2.53;;;10.70;99.90;;;;;;5081487;28;20119;-71
2022/10/03 03:27:34;;;;;;;13.57;2.20;;;10.70;99.90;;;;;;5050228;28;20466;-71
2022/10/03 03:30:01;;;;;;;12.00;2.00;;;10.70;99.90;;;;;;5070034;28;20099;-72
2022/10/03 03:32:48;;;;;;;10.75;2.38;;;10.70;99.90;;;;;;5059712;28;20055;-72
2022/10/03 03:35:20;;;;;;;15.57;2.35;;;10.70;99.90;;;;;;5089729;28;20048;-71
2022/10/03 03:38:23;;;;;;;12.02;2.10;;;10.70;99.90;;;;;;5063504;28;20045;-71
2022/10/03 03:41:13;;;;;;;12.38;2.05;;;10.60;99.90;;;;;;5061060;28;20052;-71
2022/10/03 03:44:05;;;;;;;13.60;2.10;;;10.60;99.90;;;;;;5075069;28;20052;-71
2022/10/03 03:46:46;;;;;;;19.80;2.45;;;10.60;99.90;;;;;;5062395;28;20059;-71
2022/10/03 03:49:31;;;;;;;15.25;2.42;;;10.60;99.90;;;;;;5068191;28;20055;-71
2022/10/03 03:52:20;;;;;;;19.30;2.30;;;10.60;99.90;;;;;;5076421;28;20070;-71
2022/10/03 03:55:30;;;;;;;10.98;2.28;;;10.60;99.90;;;;;;5090195;28;20052;-71
2022/10/03 03:58:12;;;;;;;17.33;2.10;;;10.60;99.90;;;;;;4994791;28;20517;-71
2022/10/03 04:00:54;;;;;;;13.48;2.10;;;10.60;99.90;;;;;;5028269;28;20072;-71
2022/10/03 04:03:36;;;;;;;16.50;2.15;;;10.60;99.90;;;;;;5063772;28;20098;-71
2022/10/03 04:06:26;;;;;;;13.57;2.38;;;10.60;99.90;;;;;;5068778;28;20117;-71
2022/10/03 04:09:28;;;;;;;12.67;2.07;;;10.60;99.90;;;;;;5048213;28;20074;-71
2022/10/03 04:11:58;;;;;;;11.55;1.92;;;10.60;99.90;;;;;;5068588;28;20456;-71
2022/10/03 04:15:08;;;;;;;11.95;2.25;;;10.70;99.90;;;;;;5067925;28;20041;-71
2022/10/03 04:21:11;;;;;;;16.27;2.30;;;10.70;99.90;;;;;;5061955;28;20051;-71
2022/10/03 04:24:00;;;;;;;13.27;1.85;;;10.60;99.90;;;;;;5078436;28;20040;-71
2022/10/03 04:26:47;;;;;;;11.02;1.77;;;10.60;99.90;;;;;;5048971;28;20599;-71
2022/10/03 04:29:41;;;;;;;12.88;2.28;;;10.70;99.90;;;;;;5059931;28;20647;-71
2022/10/03 04:32:21;;;;;;;13.65;1.98;;;10.60;99.90;;;;;;5081397;28;20105;-71
2022/10/03 04:35:19;;;;;;;14.13;2.20;;;10.70;99.90;;;;;;5074988;28;20063;-71
2022/10/03 04:38:33;;;;;;;16.15;2.50;;;10.60;99.90;;;;;;5052574;28;20514;-71
2022/10/03 04:41:17;;;;;;;10.23;2.00;;;10.60;99.90;;;;;;5058691;28;20064;-71
2022/10/03 04:44:01;;;;;;;10.32;1.80;;;10.60;99.90;;;;;;5047503;28;20036;-71
2022/10/03 04:46:29;;;;;;;12.73;2.75;;;10.60;99.90;;;;;;5035564;28;20487;-71
2022/10/03 04:49:15;;;;;;;15.10;3.90;;;10.50;99.90;;;;;;5061733;28;20946;-71
2022/10/03 04:52:21;;;;;;;13.32;2.75;;;10.50;99.90;;;;;;5061384;28;20622;-71
2022/10/03 04:55:06;;;;;;;12.23;2.47;;;10.50;99.90;;;;;;5006044;28;20050;-71
2022/10/03 04:57:47;;;;;;;12.07;2.00;;;10.40;99.90;;;;;;5046660;28;20053;-71
2022/10/03 05:00:28;;;;;;;12.18;2.15;;;10.40;99.90;;;;;;5063799;28;20044;-71
2022/10/03 05:03:03;;;;;;;13.05;1.95;;;10.30;99.90;;;;;;5066335;28;20115;-71
2022/10/03 05:05:58;;;;;;;11.45;2.05;;;10.30;99.90;;;;;;5065691;28;20048;-71
2022/10/03 05:08:45;;;;;;;11.50;2.13;;;10.30;99.90;;;;;;5019249;28;20128;-71
2022/10/03 05:11:47;;;;;;;16.73;2.30;;;10.20;99.90;;;;;;5062539;28;20162;-71
2022/10/03 05:14:36;;;;;;;18.17;2.22;;;10.20;99.90;;;;;;5059732;28;21393;-71
2022/10/03 05:17:10;;;;;;;18.58;2.78;;;10.10;99.90;;;;;;5046985;28;20084;-71
2022/10/03 05:19:55;;;;;;;12.85;1.75;;;10.10;99.90;;;;;;5063608;28;20036;-71
2022/10/03 05:22:26;;;;;;;13.57;2.20;;;10.00;99.90;;;;;;5064862;28;20048;-71
2022/10/03 05:25:21;;;;;;;17.60;2.35;;;9.90;99.90;;;;;;5062818;28;20068;-71
2022/10/03 05:27:59;;;;;;;13.23;2.00;;;9.90;99.90;;;;;;5028820;28;20036;-71
2022/10/03 05:30:33;;;;;;;15.00;2.17;;;9.90;99.90;;;;;;5058520;28;20515;-71
2022/10/03 05:33:19;;;;;;;14.35;2.40;;;9.80;99.90;;;;;;5063578;28;20036;-71
2022/10/03 05:36:17;;;;;;;10.20;1.97;;;9.70;99.90;;;;;;5048024;28;20495;-71
2022/10/03 05:38:58;;;;;;;13.27;2.20;;;9.70;99.90;;;;;;5025753;28;20531;-71
2022/10/03 05:41:36;;;;;;;;;;;9.60;99.90;;;;;;5067856;28;20411;-71
2022/10/03 05:44:25;;;;;;;15.97;2.30;;;9.70;99.90;;;;;;5063551;28;20360;-71
2022/10/03 05:50:15;;;;;;;16.33;2.37;;;9.50;99.90;;;;;;5064184;28;20051;-71
2022/10/03 05:53:05;;;;;;;13.53;2.03;;;9.60;99.90;;;;;;5067088;28;20484;-71
2022/10/03 05:55:37;;;;;;;14.03;2.27;;;9.60;99.90;;;;;;5065756;28;20095;-71
2022/10/03 05:58:18;;;;;;;14.47;2.73;;;9.60;99.90;;;;;;5050702;28;20059;-71
2022/10/03 06:01:03;;;;;;;;;;;9.60;99.90;;;;;;5068154;28;20056;-71
2022/10/03 06:03:51;;;;;;;16.17;2.33;;;9.60;99.90;;;;;;5069704;28;20464;-71
2022/10/03 06:06:27;;;;;;;16.50;2.43;;;9.70;99.90;;;;;;5051815;28;20052;-72
2022/10/03 06:09:17;;;;;;;11.93;2.20;;;9.70;99.90;;;;;;5056801;28;20137;-71
2022/10/03 06:12:15;;;;;;;15.83;2.83;;;9.60;99.90;;;;;;5059797;28;20566;-71
2022/10/03 06:14:48;;;;;;;19.33;2.67;;;9.70;99.90;;;;;;5066056;28;20045;-71
2022/10/03 06:17:28;;;;;;;17.33;2.40;;;9.70;99.90;;;;;;5050880;28;20080;-71
2022/10/03 06:19:56;;;;;;;20.10;2.80;;;9.70;99.90;;;;;;5058290;28;20404;-71
2022/10/03 06:22:44;;;;;;;14.73;2.50;;;9.80;99.90;;;;;;5053283;28;20041;-72
2022/10/03 06:25:24;;;;;;;16.77;2.63;;;9.80;99.90;;;;;;5061798;28;20052;-72
2022/10/03 06:28:34;;;;;;;9.77;2.20;;;9.80;99.90;;;;;;5050876;28;20491;-71
2022/10/03 06:31:25;;;;;;;12.00;2.00;;;10.00;99.90;;;;;;5035291;28;20098;-71
2022/10/03 06:33:56;;;;;;;14.20;2.58;;;10.30;99.90;;;;;;5065844;28;20075;-71
2022/10/03 06:36:34;;;;;;;17.48;2.75;;;10.00;99.90;;;;;;5055663;28;20058;-71
2022/10/03 06:39:52;;;;;;;12.07;2.20;;;10.00;99.90;;;;;;5062902;28;20051;-71
2022/10/03 06:42:31;;;;;;;15.15;2.80;;;10.00;99.90;;;;;;5054098;28;20114;-71
2022/10/03 06:45:00;;;;;;;13.82;2.60;;;10.00;99.90;;;;;;5073210;28;20115;-71
2022/10/03 06:47:46;;;;;;;10.15;2.42;;;10.00;99.90;;;;;;5042852;28;20103;-72
2022/10/03 06:50:23;;;;;;;15.10;2.83;;;10.10;99.90;;;;;;5058547;28;20049;-71
2022/10/03 06:53:15;;;;;;;10.85;2.63;;;10.20;99.90;;;;;;5055475;28;20053;-71
2022/10/03 06:56:11;;;;;;;12.95;2.53;;;10.30;99.90;;;;;;5044338;28;20115;-71
2022/10/03 06:59:00;;;;;;;16.10;2.73;;;10.30;99.90;;;;;;5047305;28;20052;-71
2022/10/03 07:01:49;;;;;;;10.30;2.30;;;10.50;99.90;;;;;;5069656;28;20510;-71
2022/10/03 07:04:26;;;;;;;13.32;2.50;;;10.50;99.90;;;;;;5070944;28;20087;-71
2022/10/03 07:07:08;;;;;;;11.10;2.20;;;10.60;99.90;;;;;;5048360;28;20045;-71
2022/10/03 07:09:53;;;;;;;10.68;2.05;;;10.60;99.90;;;;;;5047253;28;20353;-71
2022/10/03 07:12:37;;;;;;;13.00;2.15;;;10.70;99.90;;;;;;5045579;28;20125;-71
2022/10/03 07:15:21;;;;;;;12.48;2.03;;;10.80;99.90;;;;;;5048131;28;20048;-71
2022/10/03 07:18:13;;;;;;;15.82;2.42;;;11.00;99.90;;;;;;5031370;28;20106;-71
2022/10/03 07:21:01;;;;;;;16.30;2.60;;;11.00;99.90;;;;;;5011963;28;20080;-71
2022/10/03 07:24:04;;;;;;;12.43;2.28;;;11.10;99.90;;;;;;5046801;28;20045;-72
2022/10/03 07:26:36;;;;;;;11.98;2.38;;;11.30;99.90;;;;;;5017171;28;20940;-71
2022/10/03 07:29:05;;;;;;;;;;;11.30;99.90;;;;;;5028868;28;20139;-71
2022/10/03 07:32:14;;;;;;;11.90;2.22;;;11.30;99.90;;;;;;5047510;28;20322;-71
2022/10/03 07:34:49;;;;;;;12.07;2.30;;;11.30;99.90;;;;;;5046542;28;20040;-71
2022/10/03 07:41:35;;;;;;;10.93;1.98;;;11.60;99.90;;;;;;5009649;28;20060;-71
2022/10/03 07:44:14;;;;;;;8.30;2.00;;;11.70;99.90;;;;;;5042598;28;20040;-71
2022/10/03 07:47:08;;;;;;;9.45;1.77;;;11.80;99.90;;;;;;5035059;28;20102;-71
2022/10/03 07:50:09;;;;;;;10.57;2.28;;;11.90;99.90;;;;;;5046261;28;20507;-71
2022/10/03 07:53:00;;;;;;;15.85;2.28;;;12.00;99.90;;;;;;4968370;28;20469;-71
2022/10/03 07:55:50;;;;;;;10.68;2.38;;;12.10;99.90;;;;;;5043252;28;20059;-71
2022/10/03 07:58:32;;;;;;;11.88;1.90;;;12.20;99.90;;;;;;5014348;28;20574;-71
2022/10/03 08:01:36;;;;;;;12.48;2.03;;;12.40;99.90;;;;;;5046706;28;20057;-71
2022/10/03 08:04:29;;;;;;;11.75;1.98;;;12.70;99.90;;;;;;5043791;28;20186;-72
2022/10/03 08:07:32;;;;;;;16.08;2.20;;;13.00;99.90;;;;;;5034033;28;20049;-72
2022/10/03 08:09:57;;;;;;;16.33;2.13;;;13.10;99.90;;;;;;5047928;28;20730;-71
2022/10/03 08:13:01;;;;;;;14.93;2.33;;;13.10;99.90;;;;;;5045475;28;20059;-71
2022/10/03 08:15:48;;;;;;;15.50;2.10;;;13.20;99.90;;;;;;5046247;28;20667;-72
2022/10/03 08:18:36;;;;;;;11.68;1.92;;;13.10;99.90;;;;;;5028995;28;20728;-72
2022/10/03 08:21:33;;;;;;;7.93;1.88;;;13.30;99.90;;;;;;5045326;28;20056;-71
2022/10/03 08:24:16;;;;;;;8.18;1.77;;;13.40;99.90;;;;;;5027563;28;20048;-72
2022/10/03 08:26:48;;;;;;;17.60;2.42;;;13.40;99.90;;;;;;5014403;28;20083;-72
2022/10/03 08:29:14;;;;;;;12.30;2.00;;;13.50;99.90;;;;;;5045054;28;20060;-71
2022/10/03 08:32:01;;;;;;;9.27;1.65;;;13.60;99.90;;;;;;5047490;28;20870;-72
2022/10/03 08:34:45;;;;;;;14.38;1.77;;;13.70;99.90;;;;;;5043561;28;20568;-71
2022/10/03 08:37:38;;;;;;;15.57;2.40;;;13.70;99.90;;;;;;5031502;28;20056;-72
2022/10/03 08:40:57;;;;;;;11.75;2.00;;;13.80;99.90;;;;;;5047374;28;20057;-71
2022/10/03 08:43:50;;;;;;;8.18;1.50;;;13.80;99.90;;;;;;5045895;28;20059;-72
2022/10/03 08:46:40;;;;;;;8.45;1.33;;;13.90;99.90;;;;;;5038753;28;20499;-72
2022/10/03 08:49:35;;;;;;;10.15;1.73;;;13.90;99.90;;;;;;5043311;28;20056;-71
2022/10/03 08:52:20;;;;;;;7.57;1.50;;;14.00;99.90;;;;;;5046586;28;20056;-72
2022/10/03 08:54:55;;;;;;;7.15;1.70;;;14.10;99.90;;;;;;5045989;28;20052;-71
2022/10/03 08:57:32;;;;;;;7.88;1.52;;;14.20;99.90;;;;;;5030922;28;20052;-72
2022/10/03 09:00:10;;;;;;;8.32;1.42;;;14.30;99.90;;;;;;5047495;28;20052;-71
2022/10/03 09:03:10;;;;;;;7.30;1.63;;;14.30;99.90;;;;;;5045137;28;20067;-71
2022/10/03 09:06:18;;;;;;;8.97;1.53;;;14.40;99.90;;;;;;5046969;28;20044;-72
2022/10/03 09:09:21;;;;;;;10.75;1.75;;;14.20;99.90;;;;;;5041641;28;20057;-71
2022/10/03 09:12:30;;;;;;;13.00;1.80;;;14.60;99.90;;;;;;4994192;28;20052;-72
2022/10/03 09:15:14;;;;;;;9.38;1.30;;;14.70;99.90;;;;;;5014160;28;20040;-72
2022/10/03 09:17:45;;;;;;;7.43;1.95;;;14.70;99.90;;;;;;5033510;28;20068;-72
2022/10/03 09:20:15;;;;;;;;;;;14.70;99.90;;;;;;5051422;28;20139;-72
2022/10/03 09:22:59;;;;;;;9.95;1.55;;;14.90;99.90;;;;;;5048367;28;19924;-71
2022/10/03 09:25:54;;;;;;;9.52;1.48;;;14.80;99.90;;;;;;5051415;28;20100;-72
2022/10/03 09:28:51;;;;;;;9.68;1.65;;;14.90;99.90;;;;;;5032958;28;20079;-72
2022/10/03 09:31:32;;;;;;;9.65;1.45;;;14.90;99.90;;;;;;5049067;28;20064;-72
2022/10/03 09:34:38;;;;;;;10.30;1.55;;;15.00;99.90;;;;;;5048700;28;20079;-72
2022/10/03 09:37:03;;;;;;;12.52;1.85;;;15.10;99.90;;;;;;5033281;28;21525;-71
2022/10/03 09:40:07;;;;;;;8.52;1.13;;;15.10;99.90;;;;;;5052313;28;20101;-72
2022/10/03 09:42:55;;;;;;;6.63;1.30;;;15.30;99.90;;;;;;4972741;28;20099;-72
2022/10/03 09:45:39;;;;;;;7.45;1.40;;;15.30;99.90;;;;;;4953737;28;20147;-71
2022/10/03 09:48:14;;;;;;;9.35;1.42;;;15.30;99.90;;;;;;5011181;28;20059;-72
2022/10/03 09:50:57;;;;;;;7.55;1.30;;;15.20;99.90;;;;;;5049976;28;20076;-72
2022/10/03 09:53:28;;;;;;;9.10;1.40;;;15.30;99.90;;;;;;5049137;28;20048;-70
2022/10/03 09:56:06;;;;;;;9.90;1.20;;;15.40;99.90;;;;;;5051557;28;20549;-71
2022/10/03 09:58:49;;;;;;;7.28;1.05;;;15.30;99.90;;;;;;5039352;28;20055;-71
2022/10/03 10:01:40;;;;;;;6.20;0.88;;;15.30;99.90;;;;;;5049729;28;20522;-70
2022/10/03 10:04:33;;;;;;;9.50;1.23;;;15.40;99.90;;;;;;5048156;28;20053;-71
2022/10/03 10:07:24;;;;;;;9.35;1.40;;;15.50;99.90;;;;;;5034348;28;20579;-70
2022/10/03 10:10:12;;;;;;;5.90;0.90;;;15.60;99.90;;;;;;5048765;28;20537;-72
2022/10/03 10:13:23;;;;;;;5.63;1.08;;;15.60;99.90;;;;;;5049092;28;20045;-71
2022/10/03 10:16:08;;;;;;;8.25;1.27;;;15.60;99.90;;;;;;5047281;28;20534;-71
2022/10/03 10:18:49;;;;;;;9.82;1.45;;;15.60;99.90;;;;;;5021813;28;20052;-71
2022/10/03 10:21:47;;;;;;;7.65;1.00;;;15.60;99.90;;;;;;5048576;28;20526;-71
2022/10/03 10:24:24;;;;;;;8.77;1.38;;;15.60;99.90;;;;;;5014306;28;20144;-71
2022/10/03 10:27:18;;;;;;;10.45;1.30;;;15.70;99.90;;;;;;5016708;28;20118;-71
2022/10/03 10:30:02;;;;;;;6.38;1.20;;;15.70;99.90;;;;;;5029706;28;20044;-71
2022/10/03 10:33:05;;;;;;;8.90;1.55;;;15.80;99.90;;;;;;5045826;28;20063;-70
2022/10/03 10:35:37;;;;;;;7.38;1.58;;;15.70;99.90;;;;;;5047884;28;20158;-70
2022/10/03 10:38:24;;;;;;;;;;;15.70;99.90;;;;;;5034022;28;20044;-70
2022/10/03 10:41:27;;;;;;;8.73;0.98;;;15.70;99.90;;;;;;5047873;28;19951;-71
2022/10/03 10:44:21;;;;;;;8.25;1.30;;;15.60;99.90;;;;;;5031472;28;20491;-70
2022/10/03 10:47:21;;;;;;;5.47;0.90;;;15.70;99.90;;;;;;5031422;28;20056;-71
2022/10/03 10:50:37;;;;;;;7.68;1.02;;;15.70;99.90;;;;;;5028988;28;20045;-71
2022/10/03 10:53:08;;;;;;;6.38;1.10;;;15.80;99.90;;;;;;4967949;28;20501;-70
2022/10/03 10:55:46;;;;;;;6.05;0.98;;;15.90;99.90;;;;;;5024570;28;21093;-71
2022/10/03 10:59:04;;;;;;;6.75;0.93;;;16.00;99.90;;;;;;5030121;28;20067;-72
2022/10/03 11:01:55;;;;;;;5.15;0.80;;;15.90;99.90;;;;;;5046788;28;20125;-71
2022/10/03 11:04:49;;;;;;;5.10;0.85;;;15.80;99.90;;;;;;5029191;28;20494;-71
2022/10/03 11:08:09;;;;;;;5.93;1.00;;;15.90;99.90;;;;;;5029796;28;21566;-71
2022/10/03 11:10:47;;;;;;;6.25;1.02;;;15.90;99.90;;;;;;5046655;28;20053;-70
2022/10/03 11:13:39;;;;;;;6.60;1.20;;;15.90;99.90;;;;;;5047005;28;20182;-74
2022/10/03 11:16:33;;;;;;;4.80;1.10;;;15.90;99.90;;;;;;5046244;28;20114;-73
2022/10/03 11:19:17;;;;;;;3.20;0.85;;;15.90;99.90;;;;;;5043688;28;20075;-73
2022/10/03 11:21:49;;;;;;;3.00;0.98;;;15.90;99.90;;;;;;5047624;28;20062;-73
2022/10/03 11:24:19;;;;;;;4.68;1.08;;;15.90;99.90;;;;;;5045143;28;20056;-73
2022/10/03 11:27:22;;;;;;;8.35;1.13;;;15.90;99.90;;;;;;5030401;28;20500;-73
2022/10/03 11:30:17;;;;;;;7.22;0.88;;;16.00;99.90;;;;;;5045534;28;20466;-73
2022/10/03 11:33:04;;;;;;;4.53;1.00;;;16.10;99.90;;;;;;5047423;28;20052;-73
2022/10/03 11:35:48;;;;;;;5.50;0.70;;;16.00;99.90;;;;;;5045332;28;20051;-73
2022/10/03 11:38:29;;;;;;;6.45;0.90;;;16.20;99.90;;;;;;5031076;28;20064;-71
2022/10/03 11:41:09;;;;;;;5.78;1.00;;;16.30;99.90;;;;;;5046806;28;20127;-71
2022/10/03 11:43:50;;;;;;;10.38;1.05;;;16.40;99.90;;;;;;5046253;28;20905;-71
2022/10/03 11:46:33;;;;;;;9.05;1.00;;;16.40;99.90;;;;;;5035908;28;20052;-71
2022/10/03 11:49:15;;;;;;;5.78;1.30;;;16.40;99.90;;;;;;5045040;28;20562;-70
2022/10/03 11:52:07;;;;;;;5.32;1.27;;;16.30;99.90;;;;;;5048804;28;20054;-71
2022/10/03 11:54:39;;;;;;;6.15;1.00;;;16.30;99.90;;;;;;5045058;28;20110;-70
2022/10/03 11:57:08;;;;;;;;;;;16.40;99.90;;;;;;5031934;28;20044;-70
2022/10/03 11:59:46;;;;;;;4.18;1.20;;;16.50;99.90;;;;;;5046010;28;20063;-71
2022/10/03 12:02:33;;;;;;;6.57;1.20;;;16.50;99.90;;;;;;5044891;28;20048;-71
2022/10/03 12:05:11;;;;;;;2.88;0.88;;;16.70;99.90;;;;;;5029147;28;20169;-71
2022/10/03 12:11:17;;;;;;;7.25;1.05;;;16.80;99.90;;;;;;5045056;28;20054;-70
2022/10/03 12:13:55;;;;;;;7.10;1.17;;;16.80;99.90;;;;;;5044457;28;20063;-71
2022/10/03 12:16:27;;;;;;;3.50;0.65;;;16.80;99.90;;;;;;5018077;28;20052;-71
2022/10/03 12:19:05;;;;;;;7.22;1.10;;;16.70;99.90;;;;;;5041934;28;20052;-71
2022/10/03 12:21:51;;;;;;;4.13;0.90;;;16.60;99.90;;;;;;5046725;28;20097;-71
2022/10/03 12:24:44;;;;;;;5.45;1.20;;;16.70;99.90;;;;;;5044154;28;20058;-71
2022/10/03 12:27:18;;;;;;;5.13;1.02;;;16.70;99.90;;;;;;5027562;28;20151;-70
2022/10/03 12:29:59;;;;;;;7.45;0.90;;;16.60;99.90;;;;;;5029316;28;21264;-71
2022/10/03 12:32:28;;;;;;;7.20;1.25;;;16.70;99.90;;;;;;5044627;28;20051;-70
2022/10/03 12:34:59;;;;;;;6.30;1.00;;;16.50;99.90;;;;;;5029216;28;20154;-71
2022/10/03 12:38:03;;;;;;;8.15;1.42;;;16.60;99.90;;;;;;5029805;28;20076;-71
2022/10/03 12:40:40;;;;;;;6.38;1.00;;;16.70;99.90;;;;;;4949977;28;20057;-70
2022/10/03 12:43:37;;;;;;;7.28;1.48;;;16.60;99.90;;;;;;5032457;28;20044;-70
2022/10/03 12:46:14;;;;;;;4.10;0.93;;;16.50;99.90;;;;;;5051040;28;20052;-71
2022/10/03 12:49:13;;;;;;;7.07;0.80;;;16.60;99.90;;;;;;5042715;28;20565;-70
2022/10/03 12:51:56;;;;;;;4.30;0.77;;;16.70;99.90;;;;;;5049678;28;20056;-71
2022/10/03 12:54:34;;;;;;;5.15;0.93;;;16.60;99.90;;;;;;5048744;28;20052;-70
2022/10/03 12:57:19;;;;;;;7.55;1.25;;;16.60;99.90;;;;;;5016601;28;20049;-70
2022/10/03 13:00:26;;;;;;;6.32;1.00;;;16.50;99.90;;;;;;5048436;28;20056;-70
2022/10/03 13:03:14;;;;;;;5.05;0.65;;;16.50;99.90;;;;;;5038819;28;20056;-71
2022/10/03 13:05:55;;;;;;;5.35;1.00;;;16.50;99.90;;;;;;5049773;28;20052;-71
2022/10/03 13:08:43;;;;;;;7.57;1.20;;;16.50;99.90;;;;;;5033722;28;20098;-71
2022/10/03 13:11:31;;;;;;;3.97;1.00;;;16.60;99.90;;;;;;5043623;28;20049;-70
2022/10/03 13:14:28;;;;;;;4.90;1.13;;;16.50;99.90;;;;;;5047058;28;20053;-71
2022/10/03 13:17:16;;;;;;;5.07;0.82;;;16.60;99.90;;;;;;5031719;28;20049;-74
2022/10/03 13:20:14;;;;;;;5.53;0.70;;;16.50;99.90;;;;;;5045061;28;20135;-71
2022/10/03 13:22:47;;;;;;;6.25;1.00;;;16.50;99.90;;;;;;5045321;28;20450;-71
2022/10/03 13:25:30;;;;;;;6.25;0.80;;;16.50;99.90;;;;;;5046881;28;20064;-71
2022/10/03 13:28:30;;;;;;;5.25;1.30;;;16.30;99.90;;;;;;5029838;28;20052;-71
2022/10/03 13:31:05;;;;;;;7.00;1.23;;;16.30;99.90;;;;;;5035744;28;20078;-71
2022/10/03 13:33:43;;;;;;;7.03;0.95;;;16.20;99.90;;;;;;5047351;28;20074;-71
2022/10/03 13:36:23;;;;;;;6.05;0.98;;;16.30;99.90;;;;;;5043520;28;20504;-70
2022/10/03 13:39:06;;;;;;;4.50;1.10;;;16.30;99.90;;;;;;5045153;28;20119;-71
2022/10/03 13:41:35;;;;;;;6.03;1.05;;;16.40;99.90;;;;;;5047524;28;20084;-71
2022/10/03 13:44:06;;;;;;;6.50;0.90;;;16.40;99.90;;;;;;5046107;28;20075;-72
2022/10/03 13:47:23;;;;;;;8.15;1.33;;;16.50;99.90;;;;;;5036007;28;20518;-71
2022/10/03 13:50:00;;;;;;;6.57;1.17;;;16.40;99.90;;;;;;4992233;28;20052;-71
2022/10/03 13:52:52;;;;;;;7.20;1.15;;;16.30;99.90;;;;;;5046076;28;20037;-71
2022/10/03 13:55:39;;;;;;;7.38;1.10;;;16.40;99.90;;;;;;5047370;28;20052;-71
2022/10/03 13:58:17;;;;;;;4.85;1.10;;;16.50;99.90;;;;;;5030677;28;20096;-71
2022/10/03 14:01:01;;;;;;;4.18;0.90;;;16.40;99.90;;;;;;5049175;28;20063;-71
2022/10/03 14:03:48;;;;;;;5.55;1.05;;;16.40;99.90;;;;;;5046667;28;20511;-71
2022/10/03 14:06:51;;;;;;;5.18;1.08;;;16.30;99.90;;;;;;5015698;28;20052;-71
2022/10/03 14:09:33;;;;;;;3.55;0.80;;;16.20;99.90;;;;;;5045061;28;20056;-71
2022/10/03 14:12:14;;;;;;;4.03;1.00;;;16.30;99.90;;;;;;5040841;28;20052;-71
2022/10/03 14:14:45;;;;;;;5.10;0.90;;;16.30;99.90;;;;;;5041877;28;20613;-71
2022/10/03 14:17:23;;;;;;;6.45;1.10;;;16.40;99.90;;;;;;5027256;28;20290;-71
2022/10/03 14:20:13;;;;;;;5.03;1.05;;;16.40;99.90;;;;;;5043479;28;20113;-71
2022/10/03 14:22:57;;;;;;;9.55;1.30;;;16.40;99.90;;;;;;5025411;28;20984;-71
2022/10/03 14:25:29;;;;;;;3.83;0.80;;;16.40;99.90;;;;;;5043983;28;20407;-71
2022/10/03 14:28:05;;;;;;;5.43;0.98;;;16.40;99.90;;;;;;5027930;28;20048;-71
2022/10/03 14:31:02;;;;;;;6.75;1.17;;;16.30;99.90;;;;;;5027735;28;20527;-71
2022/10/03 14:33:42;;;;;;;6.18;0.70;;;16.20;99.90;;;;;;5040232;28;20136;-71
2022/10/03 14:36:23;;;;;;;6.20;1.10;;;16.10;99.90;;;;;;5037434;28;20072;-71